Baton Rouge, Louisiana
Current Conditions -  °F | °C
As of 6:53 PM on Saturday 25 Oct 2014 (Local Time) from KBTR Reporting Station
Clear Clear  
Wind Chill: 71°   Ceiling: Unl
Heat Index: 71°   Visibility: 10mi
Dew Point: 52°   Wind: 5mph
Humidity: 51%   Direction: 310°NW
Pressure: 30.08"   Gusts: NA
Location:  30.44°N, 91.19°W
Report Text: KBTR 252353Z 31004KT 10SM CLR 22/11 A3008 RMK AO2 SLP184 T02170111 10283 20217 55001
Loading
Personal Weather Stations






























Interactive Weather Map
Tropical Storm Tracking
New forecast layout! Learn more

10-Day Weather Forecast

Advertisements
Track Severe Weather on mobile